sensor_id;sensor_type;location;lat;lon;timestamp;temperature;humidity
8945;DHT22;4507;40.232;29.132;2023-07-08T00:02:23;24.90;94.90
8945;DHT22;4507;40.232;29.132;2023-07-08T00:04:52;24.90;95.00
8945;DHT22;4507;40.232;29.132;2023-07-08T00:07:22;24.80;95.00
8945;DHT22;4507;40.232;29.132;2023-07-08T00:09:51;24.80;95.10
8945;DHT22;4507;40.232;29.132;2023-07-08T00:12:20;24.80;95.20
8945;DHT22;4507;40.232;29.132;2023-07-08T00:14:50;24.80;95.30
8945;DHT22;4507;40.232;29.132;2023-07-08T00:17:19;24.80;95.30
8945;DHT22;4507;40.232;29.132;2023-07-08T00:19:48;24.80;95.30
8945;DHT22;4507;40.232;29.132;2023-07-08T00:22:18;24.80;95.30
8945;DHT22;4507;40.232;29.132;2023-07-08T00:24:47;24.70;95.40
8945;DHT22;4507;40.232;29.132;2023-07-08T00:27:17;24.70;95.50
8945;DHT22;4507;40.232;29.132;2023-07-08T00:29:46;24.70;95.50
8945;DHT22;4507;40.232;29.132;2023-07-08T00:32:16;24.70;95.60
8945;DHT22;4507;40.232;29.132;2023-07-08T00:34:45;24.60;95.60
8945;DHT22;4507;40.232;29.132;2023-07-08T00:37:32;24.60;95.70
8945;DHT22;4507;40.232;29.132;2023-07-08T00:40:08;24.60;95.80
8945;DHT22;4507;40.232;29.132;2023-07-08T00:43:02;24.60;95.90
8945;DHT22;4507;40.232;29.132;2023-07-08T00:45:38;24.60;96.00
8945;DHT22;4507;40.232;29.132;2023-07-08T00:48:34;24.70;96.10
8945;DHT22;4507;40.232;29.132;2023-07-08T00:51:07;24.70;96.10
8945;DHT22;4507;40.232;29.132;2023-07-08T00:53:38;24.70;96.10
8945;DHT22;4507;40.232;29.132;2023-07-08T00:56:11;24.80;96.10
8945;DHT22;4507;40.232;29.132;2023-07-08T00:58:45;24.80;95.90
8945;DHT22;4507;40.232;29.132;2023-07-08T01:01:23;24.90;95.90
8945;DHT22;4507;40.232;29.132;2023-07-08T01:03:57;24.90;95.80
8945;DHT22;4507;40.232;29.132;2023-07-08T01:06:30;24.90;95.80
8945;DHT22;4507;40.232;29.132;2023-07-08T01:09:03;24.90;95.80
8945;DHT22;4507;40.232;29.132;2023-07-08T01:11:36;25.00;95.90
8945;DHT22;4507;40.232;29.132;2023-07-08T01:14:25;25.00;96.00
8945;DHT22;4507;40.232;29.132;2023-07-08T01:16:55;25.00;96.10
8945;DHT22;4507;40.232;29.132;2023-07-08T01:19:26;25.00;96.20
8945;DHT22;4507;40.232;29.132;2023-07-08T01:22:02;25.10;96.60
8945;DHT22;4507;40.232;29.132;2023-07-08T01:24:50;25.10;96.30
8945;DHT22;4507;40.232;29.132;2023-07-08T01:27:22;25.10;96.20
8945;DHT22;4507;40.232;29.132;2023-07-08T01:29:51;25.10;96.30
8945;DHT22;4507;40.232;29.132;2023-07-08T01:32:20;25.10;96.30
8945;DHT22;4507;40.232;29.132;2023-07-08T01:34:52;25.10;96.30
8945;DHT22;4507;40.232;29.132;2023-07-08T01:37:34;25.10;96.40
8945;DHT22;4507;40.232;29.132;2023-07-08T01:40:27;25.10;96.40
8945;DHT22;4507;40.232;29.132;2023-07-08T01:42:57;25.10;96.40
8945;DHT22;4507;40.232;29.132;2023-07-08T01:45:28;25.10;96.40
8945;DHT22;4507;40.232;29.132;2023-07-08T01:48:19;25.10;96.50
8945;DHT22;4507;40.232;29.132;2023-07-08T01:50:51;25.10;96.50
8945;DHT22;4507;40.232;29.132;2023-07-08T01:53:31;25.10;96.50
8945;DHT22;4507;40.232;29.132;2023-07-08T01:56:00;25.00;96.50
8945;DHT22;4507;40.232;29.132;2023-07-08T01:58:30;25.00;96.60
8945;DHT22;4507;40.232;29.132;2023-07-08T02:00:59;25.00;96.60
8945;DHT22;4507;40.232;29.132;2023-07-08T02:03:29;25.00;96.70
8945;DHT22;4507;40.232;29.132;2023-07-08T02:05:58;25.00;96.70
8945;DHT22;4507;40.232;29.132;2023-07-08T02:08:29;25.00;96.80
8945;DHT22;4507;40.232;29.132;2023-07-08T02:10:58;25.00;96.90
8945;DHT22;4507;40.232;29.132;2023-07-08T02:13:46;25.00;96.90
8945;DHT22;4507;40.232;29.132;2023-07-08T02:16:15;24.90;96.70
8945;DHT22;4507;40.232;29.132;2023-07-08T02:18:44;24.90;96.60
8945;DHT22;4507;40.232;29.132;2023-07-08T02:21:13;24.90;96.50
8945;DHT22;4507;40.232;29.132;2023-07-08T02:23:50;24.90;96.30
8945;DHT22;4507;40.232;29.132;2023-07-08T02:26:20;24.80;96.00
8945;DHT22;4507;40.232;29.132;2023-07-08T02:28:49;24.80;95.90
8945;DHT22;4507;40.232;29.132;2023-07-08T02:31:18;24.70;95.90
8945;DHT22;4507;40.232;29.132;2023-07-08T02:33:48;24.70;95.70
8945;DHT22;4507;40.232;29.132;2023-07-08T02:36:19;24.70;95.60
8945;DHT22;4507;40.232;29.132;2023-07-08T02:38:50;24.60;95.40
8945;DHT22;4507;40.232;29.132;2023-07-08T02:41:44;24.60;95.20
8945;DHT22;4507;40.232;29.132;2023-07-08T02:44:16;24.50;94.40
8945;DHT22;4507;40.232;29.132;2023-07-08T02:46:45;24.50;94.10
8945;DHT22;4507;40.232;29.132;2023-07-08T02:53:14;24.50;93.90
8945;DHT22;4507;40.232;29.132;2023-07-08T02:55:44;24.50;93.80
8945;DHT22;4507;40.232;29.132;2023-07-08T02:58:16;24.50;93.80
8945;DHT22;4507;40.232;29.132;2023-07-08T03:00:45;24.50;93.80
8945;DHT22;4507;40.232;29.132;2023-07-08T03:03:33;24.40;93.80
8945;DHT22;4507;40.232;29.132;2023-07-08T03:06:03;24.30;93.90
8945;DHT22;4507;40.232;29.132;2023-07-08T03:08:33;24.20;93.90
8945;DHT22;4507;40.232;29.132;2023-07-08T03:14:10;24.10;94.30
8945;DHT22;4507;40.232;29.132;2023-07-08T03:16:46;24.10;94.40
8945;DHT22;4507;40.232;29.132;2023-07-08T03:19:18;24.00;94.50
8945;DHT22;4507;40.232;29.132;2023-07-08T03:21:47;24.00;94.90
8945;DHT22;4507;40.232;29.132;2023-07-08T03:27:46;24.00;94.70
8945;DHT22;4507;40.232;29.132;2023-07-08T03:34:10;24.00;94.60
8945;DHT22;4507;40.232;29.132;2023-07-08T03:36:45;24.00;94.50
8945;DHT22;4507;40.232;29.132;2023-07-08T03:39:25;23.90;94.40
8945;DHT22;4507;40.232;29.132;2023-07-08T03:41:54;24.00;94.40
8945;DHT22;4507;40.232;29.132;2023-07-08T03:44:23;24.00;94.30
8945;DHT22;4507;40.232;29.132;2023-07-08T03:46:53;24.00;94.20
8945;DHT22;4507;40.232;29.132;2023-07-08T03:49:23;24.00;94.00
8945;DHT22;4507;40.232;29.132;2023-07-08T03:52:14;24.00;94.00
8945;DHT22;4507;40.232;29.132;2023-07-08T03:54:48;24.00;93.90
8945;DHT22;4507;40.232;29.132;2023-07-08T03:57:17;24.00;93.80
8945;DHT22;4507;40.232;29.132;2023-07-08T03:59:47;24.00;93.80
8945;DHT22;4507;40.232;29.132;2023-07-08T04:02:17;24.00;93.80
8945;DHT22;4507;40.232;29.132;2023-07-08T04:04:47;24.00;93.80
8945;DHT22;4507;40.232;29.132;2023-07-08T04:14:43;24.00;94.00
8945;DHT22;4507;40.232;29.132;2023-07-08T04:17:13;24.00;94.10
8945;DHT22;4507;40.232;29.132;2023-07-08T04:19:43;24.00;94.20
8945;DHT22;4507;40.232;29.132;2023-07-08T04:22:13;24.00;94.20
8945;DHT22;4507;40.232;29.132;2023-07-08T04:24:43;24.10;94.30
8945;DHT22;4507;40.232;29.132;2023-07-08T04:27:13;24.10;94.40
8945;DHT22;4507;40.232;29.132;2023-07-08T04:29:44;24.10;94.50
8945;DHT22;4507;40.232;29.132;2023-07-08T04:32:13;24.10;94.60
8945;DHT22;4507;40.232;29.132;2023-07-08T04:38:26;24.20;94.70
8945;DHT22;4507;40.232;29.132;2023-07-08T04:40:55;24.20;94.70
8945;DHT22;4507;40.232;29.132;2023-07-08T04:43:25;24.30;95.00
8945;DHT22;4507;40.232;29.132;2023-07-08T04:45:57;24.30;94.60
8945;DHT22;4507;40.232;29.132;2023-07-08T04:48:26;24.40;94.50
8945;DHT22;4507;40.232;29.132;2023-07-08T04:50:55;24.40;94.20
8945;DHT22;4507;40.232;29.132;2023-07-08T04:53:27;24.40;94.00
8945;DHT22;4507;40.232;29.132;2023-07-08T04:55:56;24.40;94.00
8945;DHT22;4507;40.232;29.132;2023-07-08T04:58:25;24.50;94.00
8945;DHT22;4507;40.232;29.132;2023-07-08T05:00:54;24.50;94.10
8945;DHT22;4507;40.232;29.132;2023-07-08T05:03:23;24.60;94.20
8945;DHT22;4507;40.232;29.132;2023-07-08T05:05:52;24.60;94.40
8945;DHT22;4507;40.232;29.132;2023-07-08T05:08:21;24.60;94.60
8945;DHT22;4507;40.232;29.132;2023-07-08T05:10:51;24.60;94.80
8945;DHT22;4507;40.232;29.132;2023-07-08T05:13:20;24.70;94.90
8945;DHT22;4507;40.232;29.132;2023-07-08T05:15:49;24.70;95.00
8945;DHT22;4507;40.232;29.132;2023-07-08T05:18:18;24.70;95.00
8945;DHT22;4507;40.232;29.132;2023-07-08T05:20:50;24.80;95.10
8945;DHT22;4507;40.232;29.132;2023-07-08T05:23:20;24.80;95.10
8945;DHT22;4507;40.232;29.132;2023-07-08T05:25:49;24.80;95.10
8945;DHT22;4507;40.232;29.132;2023-07-08T05:28:19;24.80;95.10
8945;DHT22;4507;40.232;29.132;2023-07-08T05:30:53;24.80;95.10
8945;DHT22;4507;40.232;29.132;2023-07-08T05:33:23;24.90;95.30
8945;DHT22;4507;40.232;29.132;2023-07-08T05:35:53;24.90;95.20
8945;DHT22;4507;40.232;29.132;2023-07-08T05:38:24;24.90;95.20
8945;DHT22;4507;40.232;29.132;2023-07-08T05:40:55;24.90;95.20
8945;DHT22;4507;40.232;29.132;2023-07-08T05:43:27;24.80;95.10
8945;DHT22;4507;40.232;29.132;2023-07-08T05:45:59;24.90;95.10
8945;DHT22;4507;40.232;29.132;2023-07-08T05:48:38;24.90;95.20
8945;DHT22;4507;40.232;29.132;2023-07-08T05:51:07;24.80;95.10
8945;DHT22;4507;40.232;29.132;2023-07-08T05:53:39;24.80;94.90
8945;DHT22;4507;40.232;29.132;2023-07-08T05:56:08;24.80;94.90
8945;DHT22;4507;40.232;29.132;2023-07-08T06:01:45;24.70;94.80
8945;DHT22;4507;40.232;29.132;2023-07-08T06:04:14;24.60;94.90
8945;DHT22;4507;40.232;29.132;2023-07-08T06:06:43;24.60;95.10
8945;DHT22;4507;40.232;29.132;2023-07-08T06:09:12;24.70;95.20
8945;DHT22;4507;40.232;29.132;2023-07-08T06:11:41;24.70;95.30
8945;DHT22;4507;40.232;29.132;2023-07-08T06:14:10;24.70;95.30
8945;DHT22;4507;40.232;29.132;2023-07-08T06:16:39;24.70;95.30
8945;DHT22;4507;40.232;29.132;2023-07-08T06:19:11;24.70;95.30
8945;DHT22;4507;40.232;29.132;2023-07-08T06:21:42;24.70;95.30
8945;DHT22;4507;40.232;29.132;2023-07-08T06:24:11;24.80;95.20
8945;DHT22;4507;40.232;29.132;2023-07-08T06:26:40;24.80;95.30
8945;DHT22;4507;40.232;29.132;2023-07-08T06:29:09;24.80;95.40
8945;DHT22;4507;40.232;29.132;2023-07-08T06:31:40;24.80;95.50
8945;DHT22;4507;40.232;29.132;2023-07-08T06:34:10;24.90;95.50
8945;DHT22;4507;40.232;29.132;2023-07-08T06:36:40;24.90;95.60
8945;DHT22;4507;40.232;29.132;2023-07-08T06:39:09;25.00;95.70
8945;DHT22;4507;40.232;29.132;2023-07-08T06:41:38;25.00;95.70
8945;DHT22;4507;40.232;29.132;2023-07-08T06:44:07;25.10;95.90
8945;DHT22;4507;40.232;29.132;2023-07-08T06:46:36;25.20;96.00
8945;DHT22;4507;40.232;29.132;2023-07-08T06:49:05;25.30;95.80
8945;DHT22;4507;40.232;29.132;2023-07-08T06:51:38;25.40;95.80
8945;DHT22;4507;40.232;29.132;2023-07-08T06:54:08;25.40;95.90
8945;DHT22;4507;40.232;29.132;2023-07-08T06:56:40;25.50;95.60
8945;DHT22;4507;40.232;29.132;2023-07-08T06:59:12;25.50;95.60
8945;DHT22;4507;40.232;29.132;2023-07-08T07:01:41;25.50;95.70
8945;DHT22;4507;40.232;29.132;2023-07-08T07:04:10;25.60;96.00
8945;DHT22;4507;40.232;29.132;2023-07-08T07:06:40;25.60;96.00
8945;DHT22;4507;40.232;29.132;2023-07-08T07:09:09;25.60;95.80
8945;DHT22;4507;40.232;29.132;2023-07-08T07:11:39;25.60;95.70
8945;DHT22;4507;40.232;29.132;2023-07-08T07:14:08;25.60;95.70
8945;DHT22;4507;40.232;29.132;2023-07-08T07:16:41;25.60;95.70
8945;DHT22;4507;40.232;29.132;2023-07-08T07:19:51;25.60;95.70
8945;DHT22;4507;40.232;29.132;2023-07-08T07:22:22;25.50;95.80
8945;DHT22;4507;40.232;29.132;2023-07-08T07:25:09;25.50;95.90
8945;DHT22;4507;40.232;29.132;2023-07-08T07:27:38;25.50;95.90
8945;DHT22;4507;40.232;29.132;2023-07-08T07:30:08;25.50;95.90
8945;DHT22;4507;40.232;29.132;2023-07-08T07:32:41;25.50;96.00
8945;DHT22;4507;40.232;29.132;2023-07-08T07:35:11;25.50;96.20
8945;DHT22;4507;40.232;29.132;2023-07-08T07:37:44;25.50;96.30
8945;DHT22;4507;40.232;29.132;2023-07-08T07:40:14;25.50;96.30
8945;DHT22;4507;40.232;29.132;2023-07-08T07:42:45;25.50;96.40
8945;DHT22;4507;40.232;29.132;2023-07-08T07:45:14;25.50;96.60
8945;DHT22;4507;40.232;29.132;2023-07-08T07:47:43;25.50;96.50
8945;DHT22;4507;40.232;29.132;2023-07-08T07:50:12;25.50;96.70
8945;DHT22;4507;40.232;29.132;2023-07-08T07:52:43;25.40;96.70
8945;DHT22;4507;40.232;29.132;2023-07-08T07:55:15;25.40;96.90
8945;DHT22;4507;40.232;29.132;2023-07-08T07:57:45;25.40;97.00
8945;DHT22;4507;40.232;29.132;2023-07-08T08:00:15;25.30;97.00
8945;DHT22;4507;40.232;29.132;2023-07-08T08:02:46;25.20;97.20
8945;DHT22;4507;40.232;29.132;2023-07-08T08:05:16;25.20;97.40
8945;DHT22;4507;40.232;29.132;2023-07-08T08:07:46;25.20;97.50
8945;DHT22;4507;40.232;29.132;2023-07-08T08:10:17;25.20;97.50
8945;DHT22;4507;40.232;29.132;2023-07-08T08:12:50;25.20;97.50
8945;DHT22;4507;40.232;29.132;2023-07-08T08:15:21;25.10;97.20
8945;DHT22;4507;40.232;29.132;2023-07-08T08:17:51;25.00;97.30
8945;DHT22;4507;40.232;29.132;2023-07-08T08:20:22;25.00;97.60
8945;DHT22;4507;40.232;29.132;2023-07-08T08:22:54;25.00;97.70
8945;DHT22;4507;40.232;29.132;2023-07-08T08:25:24;25.00;97.70
8945;DHT22;4507;40.232;29.132;2023-07-08T08:27:53;24.90;97.50
8945;DHT22;4507;40.232;29.132;2023-07-08T08:30:26;24.90;97.40
8945;DHT22;4507;40.232;29.132;2023-07-08T08:32:56;24.90;97.30
8945;DHT22;4507;40.232;29.132;2023-07-08T08:35:25;24.90;97.40
8945;DHT22;4507;40.232;29.132;2023-07-08T08:37:56;24.90;97.50
8945;DHT22;4507;40.232;29.132;2023-07-08T08:40:26;24.90;97.50
8945;DHT22;4507;40.232;29.132;2023-07-08T08:42:59;24.80;97.50
8945;DHT22;4507;40.232;29.132;2023-07-08T08:45:32;24.80;97.50
8945;DHT22;4507;40.232;29.132;2023-07-08T08:48:06;24.80;97.40
8945;DHT22;4507;40.232;29.132;2023-07-08T08:50:43;24.80;97.50
8945;DHT22;4507;40.232;29.132;2023-07-08T08:53:16;24.80;97.50
8945;DHT22;4507;40.232;29.132;2023-07-08T08:55:52;24.80;97.40
8945;DHT22;4507;40.232;29.132;2023-07-08T08:58:31;24.90;97.50
8945;DHT22;4507;40.232;29.132;2023-07-08T09:01:06;24.90;97.30
8945;DHT22;4507;40.232;29.132;2023-07-08T09:03:45;24.90;97.40
8945;DHT22;4507;40.232;29.132;2023-07-08T09:06:35;24.90;97.50
8945;DHT22;4507;40.232;29.132;2023-07-08T09:09:10;25.00;97.50
8945;DHT22;4507;40.232;29.132;2023-07-08T09:11:51;25.00;97.50
8945;DHT22;4507;40.232;29.132;2023-07-08T09:14:27;25.10;97.50
8945;DHT22;4507;40.232;29.132;2023-07-08T09:17:11;25.10;97.30
8945;DHT22;4507;40.232;29.132;2023-07-08T09:19:45;25.20;97.10
8945;DHT22;4507;40.232;29.132;2023-07-08T09:22:19;25.20;96.90
8945;DHT22;4507;40.232;29.132;2023-07-08T09:24:53;25.20;96.90
8945;DHT22;4507;40.232;29.132;2023-07-08T09:27:24;25.30;96.80
8945;DHT22;4507;40.232;29.132;2023-07-08T09:29:53;25.30;96.60
8945;DHT22;4507;40.232;29.132;2023-07-08T09:32:23;25.30;96.70
8945;DHT22;4507;40.232;29.132;2023-07-08T09:34:54;25.30;96.80
8945;DHT22;4507;40.232;29.132;2023-07-08T09:37:28;25.30;96.90
8945;DHT22;4507;40.232;29.132;2023-07-08T09:40:04;25.20;96.90
8945;DHT22;4507;40.232;29.132;2023-07-08T09:42:35;25.20;97.30
8945;DHT22;4507;40.232;29.132;2023-07-08T09:45:12;25.20;97.60
8945;DHT22;4507;40.232;29.132;2023-07-08T09:47:44;25.30;98.10
8945;DHT22;4507;40.232;29.132;2023-07-08T09:50:20;25.40;98.30
8945;DHT22;4507;40.232;29.132;2023-07-08T09:52:52;25.50;98.30
8945;DHT22;4507;40.232;29.132;2023-07-08T09:55:29;25.70;98.30
8945;DHT22;4507;40.232;29.132;2023-07-08T09:57:59;25.80;98.00
8945;DHT22;4507;40.232;29.132;2023-07-08T10:00:38;26.00;97.50
8945;DHT22;4507;40.232;29.132;2023-07-08T10:03:15;26.00;96.80
8945;DHT22;4507;40.232;29.132;2023-07-08T10:05:47;26.10;96.20
8945;DHT22;4507;40.232;29.132;2023-07-08T10:08:20;26.10;95.60
8945;DHT22;4507;40.232;29.132;2023-07-08T10:10:58;26.00;95.40
8945;DHT22;4507;40.232;29.132;2023-07-08T10:13:37;26.00;95.00
8945;DHT22;4507;40.232;29.132;2023-07-08T10:16:13;25.90;94.90
8945;DHT22;4507;40.232;29.132;2023-07-08T10:18:45;25.90;95.10
8945;DHT22;4507;40.232;29.132;2023-07-08T10:21:29;25.80;95.10
8945;DHT22;4507;40.232;29.132;2023-07-08T10:24:16;25.80;95.30
8945;DHT22;4507;40.232;29.132;2023-07-08T10:26:55;25.70;95.40
8945;DHT22;4507;40.232;29.132;2023-07-08T10:29:31;25.70;95.30
8945;DHT22;4507;40.232;29.132;2023-07-08T10:32:08;25.60;95.20
8945;DHT22;4507;40.232;29.132;2023-07-08T10:34:45;25.60;95.40
8945;DHT22;4507;40.232;29.132;2023-07-08T10:37:25;25.50;95.50
8945;DHT22;4507;40.232;29.132;2023-07-08T10:43:13;25.20;95.90
8945;DHT22;4507;40.232;29.132;2023-07-08T10:45:52;25.10;96.10
8945;DHT22;4507;40.232;29.132;2023-07-08T10:48:34;24.90;96.40
8945;DHT22;4507;40.232;29.132;2023-07-08T10:51:12;24.90;97.60
8945;DHT22;4507;40.232;29.132;2023-07-08T10:54:01;25.00;98.40
8945;DHT22;4507;40.232;29.132;2023-07-08T10:56:40;25.10;98.30
8945;DHT22;4507;40.232;29.132;2023-07-08T10:59:34;25.20;97.70
8945;DHT22;4507;40.232;29.132;2023-07-08T11:02:46;25.20;97.00
8945;DHT22;4507;40.232;29.132;2023-07-08T11:05:28;25.30;97.90
8945;DHT22;4507;40.232;29.132;2023-07-08T11:08:03;25.40;97.40
8945;DHT22;4507;40.232;29.132;2023-07-08T11:10:40;25.50;96.70
8945;DHT22;4507;40.232;29.132;2023-07-08T11:13:16;25.60;97.10
8945;DHT22;4507;40.232;29.132;2023-07-08T11:15:54;25.70;97.50
8945;DHT22;4507;40.232;29.132;2023-07-08T11:18:50;26.00;97.50
8945;DHT22;4507;40.232;29.132;2023-07-08T11:21:25;26.30;96.80
8945;DHT22;4507;40.232;29.132;2023-07-08T11:24:00;26.40;95.20
8945;DHT22;4507;40.232;29.132;2023-07-08T11:26:36;26.60;94.20
8945;DHT22;4507;40.232;29.132;2023-07-08T11:29:15;26.70;93.70
8945;DHT22;4507;40.232;29.132;2023-07-08T11:31:49;26.80;92.90
8945;DHT22;4507;40.232;29.132;2023-07-08T11:34:24;26.80;92.40
8945;DHT22;4507;40.232;29.132;2023-07-08T11:37:03;26.70;92.10
8945;DHT22;4507;40.232;29.132;2023-07-08T11:39:38;26.60;91.90
8945;DHT22;4507;40.232;29.132;2023-07-08T11:42:25;26.60;92.10
8945;DHT22;4507;40.232;29.132;2023-07-08T11:45:08;26.50;92.20
8945;DHT22;4507;40.232;29.132;2023-07-08T11:47:46;26.50;92.20
8945;DHT22;4507;40.232;29.132;2023-07-08T11:50:21;26.50;91.90
8945;DHT22;4507;40.232;29.132;2023-07-08T11:52:53;26.40;92.10
8945;DHT22;4507;40.232;29.132;2023-07-08T11:55:24;26.40;91.90
8945;DHT22;4507;40.232;29.132;2023-07-08T11:58:00;26.40;92.40
8945;DHT22;4507;40.232;29.132;2023-07-08T12:00:34;26.50;93.50
8945;DHT22;4507;40.232;29.132;2023-07-08T12:03:20;26.70;94.30
8945;DHT22;4507;40.232;29.132;2023-07-08T12:05:50;27.00;93.90
8945;DHT22;4507;40.232;29.132;2023-07-08T12:08:19;27.20;91.70
8945;DHT22;4507;40.232;29.132;2023-07-08T12:10:51;27.40;90.50
8945;DHT22;4507;40.232;29.132;2023-07-08T12:13:26;27.60;89.30
8945;DHT22;4507;40.232;29.132;2023-07-08T12:15:57;27.60;89.20
8945;DHT22;4507;40.232;29.132;2023-07-08T12:18:33;27.60;89.50
8945;DHT22;4507;40.232;29.132;2023-07-08T12:21:06;27.70;89.80
8945;DHT22;4507;40.232;29.132;2023-07-08T12:23:36;27.60;88.40
8945;DHT22;4507;40.232;29.132;2023-07-08T12:26:08;27.60;88.60
8945;DHT22;4507;40.232;29.132;2023-07-08T12:28:39;27.60;87.90
8945;DHT22;4507;40.232;29.132;2023-07-08T12:31:15;27.60;89.10
8945;DHT22;4507;40.232;29.132;2023-07-08T12:33:47;27.50;90.10
8945;DHT22;4507;40.232;29.132;2023-07-08T12:36:19;27.40;91.00
8945;DHT22;4507;40.232;29.132;2023-07-08T12:38:50;27.40;91.20
8945;DHT22;4507;40.232;29.132;2023-07-08T12:41:22;27.30;91.10
8945;DHT22;4507;40.232;29.132;2023-07-08T12:43:52;27.20;91.00
8945;DHT22;4507;40.232;29.132;2023-07-08T12:46:22;27.20;91.20
8945;DHT22;4507;40.232;29.132;2023-07-08T12:48:55;27.10;91.10
8945;DHT22;4507;40.232;29.132;2023-07-08T12:51:27;27.10;91.10
8945;DHT22;4507;40.232;29.132;2023-07-08T12:53:57;27.00;91.10
8945;DHT22;4507;40.232;29.132;2023-07-08T12:56:27;26.90;91.30
8945;DHT22;4507;40.232;29.132;2023-07-08T12:58:57;26.80;91.10
8945;DHT22;4507;40.232;29.132;2023-07-08T13:01:30;26.80;91.50
8945;DHT22;4507;40.232;29.132;2023-07-08T13:04:06;26.70;91.80
8945;DHT22;4507;40.232;29.132;2023-07-08T13:06:38;26.70;92.10
8945;DHT22;4507;40.232;29.132;2023-07-08T13:09:33;26.70;92.20
8945;DHT22;4507;40.232;29.132;2023-07-08T13:12:10;26.70;92.00
8945;DHT22;4507;40.232;29.132;2023-07-08T13:15:00;26.80;91.90
8945;DHT22;4507;40.232;29.132;2023-07-08T13:17:29;26.70;90.30
8945;DHT22;4507;40.232;29.132;2023-07-08T13:20:22;26.70;88.00
8945;DHT22;4507;40.232;29.132;2023-07-08T13:22:58;26.70;85.80
8945;DHT22;4507;40.232;29.132;2023-07-08T13:25:30;26.60;85.60
8945;DHT22;4507;40.232;29.132;2023-07-08T13:28:02;26.50;85.40
8945;DHT22;4507;40.232;29.132;2023-07-08T13:30:32;26.40;86.80
8945;DHT22;4507;40.232;29.132;2023-07-08T13:33:02;26.40;88.10
8945;DHT22;4507;40.232;29.132;2023-07-08T13:35:37;26.50;88.80
8945;DHT22;4507;40.232;29.132;2023-07-08T13:38:14;26.50;89.60
8945;DHT22;4507;40.232;29.132;2023-07-08T13:40:46;26.60;89.90
8945;DHT22;4507;40.232;29.132;2023-07-08T13:43:22;26.80;89.60
8945;DHT22;4507;40.232;29.132;2023-07-08T13:45:53;26.90;89.50
8945;DHT22;4507;40.232;29.132;2023-07-08T13:48:26;27.10;88.50
8945;DHT22;4507;40.232;29.132;2023-07-08T13:51:01;27.20;87.40
8945;DHT22;4507;40.232;29.132;2023-07-08T13:53:43;27.30;86.20
8945;DHT22;4507;40.232;29.132;2023-07-08T13:56:34;27.30;85.20
8945;DHT22;4507;40.232;29.132;2023-07-08T13:59:05;27.20;84.70
8945;DHT22;4507;40.232;29.132;2023-07-08T14:01:36;27.20;84.80
8945;DHT22;4507;40.232;29.132;2023-07-08T14:04:06;27.20;84.70
8945;DHT22;4507;40.232;29.132;2023-07-08T14:06:38;27.20;85.30
8945;DHT22;4507;40.232;29.132;2023-07-08T14:09:12;27.10;85.40
8945;DHT22;4507;40.232;29.132;2023-07-08T14:11:43;27.10;85.20
8945;DHT22;4507;40.232;29.132;2023-07-08T14:14:13;27.10;85.30
8945;DHT22;4507;40.232;29.132;2023-07-08T14:16:44;27.10;84.90
8945;DHT22;4507;40.232;29.132;2023-07-08T14:19:15;27.00;85.00
8945;DHT22;4507;40.232;29.132;2023-07-08T14:21:50;27.00;85.30
8945;DHT22;4507;40.232;29.132;2023-07-08T14:24:38;26.90;86.10
8945;DHT22;4507;40.232;29.132;2023-07-08T14:27:08;26.90;87.00
8945;DHT22;4507;40.232;29.132;2023-07-08T14:29:41;27.00;87.60
8945;DHT22;4507;40.232;29.132;2023-07-08T14:32:11;27.10;87.50
8945;DHT22;4507;40.232;29.132;2023-07-08T14:34:42;27.20;88.10
8945;DHT22;4507;40.232;29.132;2023-07-08T14:37:18;27.30;86.80
8945;DHT22;4507;40.232;29.132;2023-07-08T14:39:48;27.40;86.00
8945;DHT22;4507;40.232;29.132;2023-07-08T14:42:20;27.40;84.40
8945;DHT22;4507;40.232;29.132;2023-07-08T14:44:50;27.50;82.80
8945;DHT22;4507;40.232;29.132;2023-07-08T14:47:20;27.60;82.20
8945;DHT22;4507;40.232;29.132;2023-07-08T14:49:52;27.60;82.20
8945;DHT22;4507;40.232;29.132;2023-07-08T14:52:22;27.70;82.20
8945;DHT22;4507;40.232;29.132;2023-07-08T14:54:51;27.80;81.60
8945;DHT22;4507;40.232;29.132;2023-07-08T14:57:28;27.80;81.90
8945;DHT22;4507;40.232;29.132;2023-07-08T15:00:00;27.90;81.70
8945;DHT22;4507;40.232;29.132;2023-07-08T15:02:30;27.90;80.90
8945;DHT22;4507;40.232;29.132;2023-07-08T15:05:20;27.90;79.90
8945;DHT22;4507;40.232;29.132;2023-07-08T15:07:54;27.90;79.00
8945;DHT22;4507;40.232;29.132;2023-07-08T15:10:26;27.90;77.70
8945;DHT22;4507;40.232;29.132;2023-07-08T15:12:58;27.80;76.80
8945;DHT22;4507;40.232;29.132;2023-07-08T15:15:29;27.80;77.10
8945;DHT22;4507;40.232;29.132;2023-07-08T15:18:00;27.80;77.20
8945;DHT22;4507;40.232;29.132;2023-07-08T15:20:39;27.80;76.40
8945;DHT22;4507;40.232;29.132;2023-07-08T15:23:11;27.90;75.60
8945;DHT22;4507;40.232;29.132;2023-07-08T15:25:43;27.80;75.40
8945;DHT22;4507;40.232;29.132;2023-07-08T15:28:17;27.80;75.10
8945;DHT22;4507;40.232;29.132;2023-07-08T15:30:55;27.80;74.30
8945;DHT22;4507;40.232;29.132;2023-07-08T15:33:24;27.70;73.50
8945;DHT22;4507;40.232;29.132;2023-07-08T15:35:53;27.60;73.60
8945;DHT22;4507;40.232;29.132;2023-07-08T15:38:24;27.50;73.90
8945;DHT22;4507;40.232;29.132;2023-07-08T15:40:53;27.40;74.10
8945;DHT22;4507;40.232;29.132;2023-07-08T15:43:22;27.40;74.40
8945;DHT22;4507;40.232;29.132;2023-07-08T15:45:52;27.30;74.40
8945;DHT22;4507;40.232;29.132;2023-07-08T15:48:22;27.30;74.60
8945;DHT22;4507;40.232;29.132;2023-07-08T15:50:51;27.20;74.50
8945;DHT22;4507;40.232;29.132;2023-07-08T15:53:20;27.10;74.70
8945;DHT22;4507;40.232;29.132;2023-07-08T15:55:51;27.00;75.10
8945;DHT22;4507;40.232;29.132;2023-07-08T15:58:39;26.90;75.30
8945;DHT22;4507;40.232;29.132;2023-07-08T16:01:15;26.80;75.40
8945;DHT22;4507;40.232;29.132;2023-07-08T16:03:45;26.70;75.90
8945;DHT22;4507;40.232;29.132;2023-07-08T16:06:14;26.70;76.20
8945;DHT22;4507;40.232;29.132;2023-07-08T16:08:44;26.60;76.50
8945;DHT22;4507;40.232;29.132;2023-07-08T16:11:16;26.50;76.60
8945;DHT22;4507;40.232;29.132;2023-07-08T16:13:48;26.50;76.90
8945;DHT22;4507;40.232;29.132;2023-07-08T16:16:17;26.40;77.00
8945;DHT22;4507;40.232;29.132;2023-07-08T16:18:47;26.40;77.70
8945;DHT22;4507;40.232;29.132;2023-07-08T16:21:16;26.30;78.60
8945;DHT22;4507;40.232;29.132;2023-07-08T16:23:45;26.20;78.90
8945;DHT22;4507;40.232;29.132;2023-07-08T16:26:16;26.20;79.50
8945;DHT22;4507;40.232;29.132;2023-07-08T16:28:46;26.00;80.40
8945;DHT22;4507;40.232;29.132;2023-07-08T16:31:18;25.90;80.80
8945;DHT22;4507;40.232;29.132;2023-07-08T16:33:48;25.80;81.80
8945;DHT22;4507;40.232;29.132;2023-07-08T16:36:20;25.60;82.90
8945;DHT22;4507;40.232;29.132;2023-07-08T16:38:50;25.40;83.50
8945;DHT22;4507;40.232;29.132;2023-07-08T16:41:22;25.20;84.00
8945;DHT22;4507;40.232;29.132;2023-07-08T16:43:52;25.00;84.50
8945;DHT22;4507;40.232;29.132;2023-07-08T16:46:22;24.80;85.20
8945;DHT22;4507;40.232;29.132;2023-07-08T16:48:53;24.50;85.80
8945;DHT22;4507;40.232;29.132;2023-07-08T16:51:25;24.40;86.80
8945;DHT22;4507;40.232;29.132;2023-07-08T16:53:58;24.20;87.70
8945;DHT22;4507;40.232;29.132;2023-07-08T16:56:29;24.00;88.70